sensor_id;sensor_type;location;lat;lon;timestamp;P1;durP1;ratioP1;P2;durP2;ratioP2
938;SDS011;456;53.584;9.968;2023-12-20T00:01:32;1.60;;;1.47;;
938;SDS011;456;53.584;9.968;2023-12-20T00:03:58;1.93;;;1.20;;
938;SDS011;456;53.584;9.968;2023-12-20T00:06:24;4.07;;;1.77;;
938;SDS011;456;53.584;9.968;2023-12-20T00:08:49;2.73;;;1.20;;
938;SDS011;456;53.584;9.968;2023-12-20T00:11:15;4.10;;;1.60;;
938;SDS011;456;53.584;9.968;2023-12-20T00:13:40;2.10;;;1.30;;
938;SDS011;456;53.584;9.968;2023-12-20T00:16:06;2.00;;;0.90;;
938;SDS011;456;53.584;9.968;2023-12-20T00:18:31;3.10;;;1.80;;
938;SDS011;456;53.584;9.968;2023-12-20T00:20:57;2.33;;;1.37;;
938;SDS011;456;53.584;9.968;2023-12-20T00:23:23;3.60;;;1.10;;
938;SDS011;456;53.584;9.968;2023-12-20T00:25:49;4.23;;;1.50;;
938;SDS011;456;53.584;9.968;2023-12-20T00:28:14;4.77;;;1.20;;
938;SDS011;456;53.584;9.968;2023-12-20T00:30:40;2.60;;;1.47;;
938;SDS011;456;53.584;9.968;2023-12-20T00:33:05;2.00;;;1.13;;
938;SDS011;456;53.584;9.968;2023-12-20T00:35:31;4.17;;;1.17;;
938;SDS011;456;53.584;9.968;2023-12-20T00:37:57;1.77;;;1.17;;
938;SDS011;456;53.584;9.968;2023-12-20T00:40:23;5.10;;;1.67;;
938;SDS011;456;53.584;9.968;2023-12-20T00:42:49;3.17;;;1.90;;
938;SDS011;456;53.584;9.968;2023-12-20T00:45:15;3.10;;;1.50;;
938;SDS011;456;53.584;9.968;2023-12-20T00:47:40;1.90;;;1.60;;
938;SDS011;456;53.584;9.968;2023-12-20T00:50:06;2.37;;;1.50;;
938;SDS011;456;53.584;9.968;2023-12-20T00:52:32;2.70;;;1.53;;
938;SDS011;456;53.584;9.968;2023-12-20T00:54:57;3.00;;;1.57;;
938;SDS011;456;53.584;9.968;2023-12-20T00:57:23;3.20;;;1.20;;
938;SDS011;456;53.584;9.968;2023-12-20T00:59:49;5.97;;;1.80;;
938;SDS011;456;53.584;9.968;2023-12-20T01:02:14;3.03;;;1.77;;
938;SDS011;456;53.584;9.968;2023-12-20T01:04:40;3.53;;;1.67;;
938;SDS011;456;53.584;9.968;2023-12-20T01:07:05;4.80;;;1.80;;
938;SDS011;456;53.584;9.968;2023-12-20T01:09:31;5.83;;;2.03;;
938;SDS011;456;53.584;9.968;2023-12-20T01:11:56;1.93;;;1.10;;
938;SDS011;456;53.584;9.968;2023-12-20T01:14:22;4.40;;;1.90;;
938;SDS011;456;53.584;9.968;2023-12-20T01:16:47;3.30;;;1.73;;
938;SDS011;456;53.584;9.968;2023-12-20T01:19:13;2.77;;;1.30;;
938;SDS011;456;53.584;9.968;2023-12-20T01:21:39;3.30;;;1.70;;
938;SDS011;456;53.584;9.968;2023-12-20T01:24:05;2.60;;;1.50;;
938;SDS011;456;53.584;9.968;2023-12-20T01:26:31;3.93;;;1.73;;
938;SDS011;456;53.584;9.968;2023-12-20T01:28:56;2.47;;;1.67;;
938;SDS011;456;53.584;9.968;2023-12-20T01:31:22;2.90;;;1.53;;
938;SDS011;456;53.584;9.968;2023-12-20T01:33:47;4.03;;;1.60;;
938;SDS011;456;53.584;9.968;2023-12-20T01:36:13;5.97;;;1.93;;
938;SDS011;456;53.584;9.968;2023-12-20T01:38:39;5.00;;;1.53;;
938;SDS011;456;53.584;9.968;2023-12-20T01:41:04;3.70;;;1.70;;
938;SDS011;456;53.584;9.968;2023-12-20T01:43:30;2.57;;;1.30;;
938;SDS011;456;53.584;9.968;2023-12-20T01:45:56;4.13;;;2.07;;
938;SDS011;456;53.584;9.968;2023-12-20T01:48:23;3.10;;;1.60;;
938;SDS011;456;53.584;9.968;2023-12-20T01:50:49;4.77;;;1.67;;
938;SDS011;456;53.584;9.968;2023-12-20T01:53:16;2.40;;;1.30;;
938;SDS011;456;53.584;9.968;2023-12-20T01:55:43;2.77;;;1.47;;
938;SDS011;456;53.584;9.968;2023-12-20T01:58:09;4.40;;;1.80;;
938;SDS011;456;53.584;9.968;2023-12-20T02:00:37;5.73;;;1.83;;
938;SDS011;456;53.584;9.968;2023-12-20T02:03:03;2.53;;;1.23;;
938;SDS011;456;53.584;9.968;2023-12-20T02:05:29;3.83;;;1.60;;
938;SDS011;456;53.584;9.968;2023-12-20T02:07:56;3.07;;;1.47;;
938;SDS011;456;53.584;9.968;2023-12-20T02:10:22;3.80;;;2.03;;
938;SDS011;456;53.584;9.968;2023-12-20T02:12:48;4.60;;;1.90;;
938;SDS011;456;53.584;9.968;2023-12-20T02:15:13;5.17;;;2.10;;
938;SDS011;456;53.584;9.968;2023-12-20T02:17:39;3.67;;;1.70;;
938;SDS011;456;53.584;9.968;2023-12-20T02:20:05;4.73;;;2.30;;
938;SDS011;456;53.584;9.968;2023-12-20T02:22:31;2.50;;;1.53;;
938;SDS011;456;53.584;9.968;2023-12-20T02:24:57;3.90;;;1.73;;
938;SDS011;456;53.584;9.968;2023-12-20T02:27:23;4.23;;;1.60;;
938;SDS011;456;53.584;9.968;2023-12-20T02:29:49;2.50;;;1.57;;
938;SDS011;456;53.584;9.968;2023-12-20T02:32:15;6.90;;;2.10;;
938;SDS011;456;53.584;9.968;2023-12-20T02:34:45;4.17;;;2.33;;
938;SDS011;456;53.584;9.968;2023-12-20T02:37:14;5.53;;;2.23;;
938;SDS011;456;53.584;9.968;2023-12-20T02:39:40;3.87;;;1.80;;
938;SDS011;456;53.584;9.968;2023-12-20T02:42:06;2.60;;;1.47;;
938;SDS011;456;53.584;9.968;2023-12-20T02:44:31;8.80;;;2.53;;
938;SDS011;456;53.584;9.968;2023-12-20T02:46:57;3.93;;;2.17;;
938;SDS011;456;53.584;9.968;2023-12-20T02:49:22;4.60;;;2.17;;
938;SDS011;456;53.584;9.968;2023-12-20T02:51:48;1.60;;;1.30;;
938;SDS011;456;53.584;9.968;2023-12-20T02:54:14;3.37;;;1.80;;
938;SDS011;456;53.584;9.968;2023-12-20T02:56:39;6.57;;;1.80;;
938;SDS011;456;53.584;9.968;2023-12-20T02:59:05;7.20;;;1.83;;
938;SDS011;456;53.584;9.968;2023-12-20T03:01:31;3.40;;;2.07;;
938;SDS011;456;53.584;9.968;2023-12-20T03:03:57;5.10;;;1.77;;
938;SDS011;456;53.584;9.968;2023-12-20T03:06:23;3.80;;;1.70;;
938;SDS011;456;53.584;9.968;2023-12-20T03:08:49;3.80;;;1.83;;
938;SDS011;456;53.584;9.968;2023-12-20T03:11:15;4.57;;;2.00;;
938;SDS011;456;53.584;9.968;2023-12-20T03:13:40;2.30;;;1.73;;
938;SDS011;456;53.584;9.968;2023-12-20T03:16:09;4.10;;;1.67;;
938;SDS011;456;53.584;9.968;2023-12-20T03:18:36;3.27;;;1.60;;
938;SDS011;456;53.584;9.968;2023-12-20T03:21:01;4.27;;;1.73;;
938;SDS011;456;53.584;9.968;2023-12-20T03:23:27;3.03;;;2.10;;
938;SDS011;456;53.584;9.968;2023-12-20T03:25:55;7.47;;;2.23;;
938;SDS011;456;53.584;9.968;2023-12-20T03:28:21;5.80;;;2.17;;
938;SDS011;456;53.584;9.968;2023-12-20T03:30:48;4.57;;;1.90;;
938;SDS011;456;53.584;9.968;2023-12-20T03:33:13;4.10;;;1.50;;
938;SDS011;456;53.584;9.968;2023-12-20T03:35:39;4.87;;;2.10;;
938;SDS011;456;53.584;9.968;2023-12-20T03:38:04;5.90;;;1.67;;
938;SDS011;456;53.584;9.968;2023-12-20T03:40:30;2.30;;;1.53;;
938;SDS011;456;53.584;9.968;2023-12-20T03:42:55;6.13;;;1.70;;
938;SDS011;456;53.584;9.968;2023-12-20T03:45:21;4.83;;;1.50;;
938;SDS011;456;53.584;9.968;2023-12-20T03:47:47;3.87;;;1.77;;
938;SDS011;456;53.584;9.968;2023-12-20T03:50:13;3.87;;;2.07;;
938;SDS011;456;53.584;9.968;2023-12-20T03:52:39;4.83;;;1.67;;
938;SDS011;456;53.584;9.968;2023-12-20T03:55:04;3.43;;;1.80;;
938;SDS011;456;53.584;9.968;2023-12-20T03:57:30;3.87;;;1.73;;
938;SDS011;456;53.584;9.968;2023-12-20T03:59:56;4.10;;;1.50;;
938;SDS011;456;53.584;9.968;2023-12-20T04:02:22;4.87;;;2.10;;
938;SDS011;456;53.584;9.968;2023-12-20T04:04:47;4.27;;;1.40;;
938;SDS011;456;53.584;9.968;2023-12-20T04:07:13;4.10;;;1.83;;
938;SDS011;456;53.584;9.968;2023-12-20T04:09:38;3.57;;;1.60;;
938;SDS011;456;53.584;9.968;2023-12-20T04:12:06;3.53;;;1.50;;
938;SDS011;456;53.584;9.968;2023-12-20T04:14:31;3.67;;;1.50;;
938;SDS011;456;53.584;9.968;2023-12-20T04:16:57;2.33;;;2.00;;
938;SDS011;456;53.584;9.968;2023-12-20T04:19:23;5.37;;;2.10;;
938;SDS011;456;53.584;9.968;2023-12-20T04:21:48;2.03;;;1.30;;
938;SDS011;456;53.584;9.968;2023-12-20T04:24:14;2.37;;;1.50;;
938;SDS011;456;53.584;9.968;2023-12-20T04:26:39;2.90;;;1.60;;
938;SDS011;456;53.584;9.968;2023-12-20T04:29:05;3.03;;;1.43;;
938;SDS011;456;53.584;9.968;2023-12-20T04:31:30;2.80;;;1.40;;
938;SDS011;456;53.584;9.968;2023-12-20T04:33:56;2.93;;;1.73;;
938;SDS011;456;53.584;9.968;2023-12-20T04:36:22;3.60;;;1.53;;
938;SDS011;456;53.584;9.968;2023-12-20T04:38:47;5.23;;;1.70;;
938;SDS011;456;53.584;9.968;2023-12-20T04:41:13;1.83;;;1.20;;
938;SDS011;456;53.584;9.968;2023-12-20T04:43:41;3.97;;;2.10;;
938;SDS011;456;53.584;9.968;2023-12-20T04:46:06;2.43;;;1.40;;
938;SDS011;456;53.584;9.968;2023-12-20T04:48:32;3.73;;;1.60;;
938;SDS011;456;53.584;9.968;2023-12-20T04:50:57;3.53;;;1.80;;
938;SDS011;456;53.584;9.968;2023-12-20T04:53:23;6.40;;;1.87;;
938;SDS011;456;53.584;9.968;2023-12-20T04:55:49;3.97;;;1.67;;
938;SDS011;456;53.584;9.968;2023-12-20T04:58:14;3.73;;;1.90;;
938;SDS011;456;53.584;9.968;2023-12-20T05:00:40;3.23;;;1.50;;
938;SDS011;456;53.584;9.968;2023-12-20T05:03:05;3.00;;;1.50;;
938;SDS011;456;53.584;9.968;2023-12-20T05:05:31;3.73;;;2.00;;
938;SDS011;456;53.584;9.968;2023-12-20T05:07:57;4.57;;;1.60;;
938;SDS011;456;53.584;9.968;2023-12-20T05:10:22;3.60;;;1.73;;
938;SDS011;456;53.584;9.968;2023-12-20T05:12:48;3.57;;;1.87;;
938;SDS011;456;53.584;9.968;2023-12-20T05:15:13;3.23;;;1.73;;
938;SDS011;456;53.584;9.968;2023-12-20T05:17:39;3.53;;;1.90;;
938;SDS011;456;53.584;9.968;2023-12-20T05:20:05;4.83;;;1.73;;
938;SDS011;456;53.584;9.968;2023-12-20T05:22:31;2.27;;;1.70;;
938;SDS011;456;53.584;9.968;2023-12-20T05:24:56;3.20;;;1.87;;
938;SDS011;456;53.584;9.968;2023-12-20T05:27:22;3.93;;;2.13;;
938;SDS011;456;53.584;9.968;2023-12-20T05:29:47;3.70;;;1.80;;
938;SDS011;456;53.584;9.968;2023-12-20T05:32:13;3.60;;;2.03;;
938;SDS011;456;53.584;9.968;2023-12-20T05:34:39;3.27;;;1.50;;
938;SDS011;456;53.584;9.968;2023-12-20T05:37:04;3.73;;;2.00;;
938;SDS011;456;53.584;9.968;2023-12-20T05:39:30;5.07;;;2.17;;
938;SDS011;456;53.584;9.968;2023-12-20T05:41:56;3.30;;;1.93;;
938;SDS011;456;53.584;9.968;2023-12-20T05:44:21;4.20;;;2.30;;
938;SDS011;456;53.584;9.968;2023-12-20T05:46:47;2.87;;;1.70;;
938;SDS011;456;53.584;9.968;2023-12-20T05:49:13;2.23;;;1.60;;
938;SDS011;456;53.584;9.968;2023-12-20T05:51:39;3.10;;;1.80;;
938;SDS011;456;53.584;9.968;2023-12-20T05:54:04;4.67;;;2.00;;
938;SDS011;456;53.584;9.968;2023-12-20T05:56:30;2.83;;;2.00;;
938;SDS011;456;53.584;9.968;2023-12-20T05:58:55;3.57;;;1.90;;
938;SDS011;456;53.584;9.968;2023-12-20T06:01:21;3.90;;;2.20;;
938;SDS011;456;53.584;9.968;2023-12-20T06:03:47;3.80;;;1.90;;
938;SDS011;456;53.584;9.968;2023-12-20T06:06:13;2.80;;;1.80;;
938;SDS011;456;53.584;9.968;2023-12-20T06:08:39;4.23;;;2.20;;
938;SDS011;456;53.584;9.968;2023-12-20T06:11:04;2.93;;;1.90;;
938;SDS011;456;53.584;9.968;2023-12-20T06:13:30;4.63;;;2.20;;
938;SDS011;456;53.584;9.968;2023-12-20T06:15:56;6.30;;;1.93;;
938;SDS011;456;53.584;9.968;2023-12-20T06:18:22;6.50;;;2.20;;
938;SDS011;456;53.584;9.968;2023-12-20T06:20:48;3.13;;;1.83;;
938;SDS011;456;53.584;9.968;2023-12-20T06:23:14;3.60;;;2.30;;
938;SDS011;456;53.584;9.968;2023-12-20T06:25:39;2.80;;;1.57;;
938;SDS011;456;53.584;9.968;2023-12-20T06:28:05;3.47;;;1.70;;
938;SDS011;456;53.584;9.968;2023-12-20T06:30:31;3.27;;;1.90;;
938;SDS011;456;53.584;9.968;2023-12-20T06:32:57;2.87;;;1.43;;
938;SDS011;456;53.584;9.968;2023-12-20T06:35:23;3.13;;;2.30;;
938;SDS011;456;53.584;9.968;2023-12-20T06:37:49;3.03;;;1.90;;
938;SDS011;456;53.584;9.968;2023-12-20T06:40:15;5.33;;;2.13;;
938;SDS011;456;53.584;9.968;2023-12-20T06:42:41;2.53;;;1.97;;
938;SDS011;456;53.584;9.968;2023-12-20T06:45:07;2.80;;;2.07;;
938;SDS011;456;53.584;9.968;2023-12-20T06:47:32;2.77;;;2.13;;
938;SDS011;456;53.584;9.968;2023-12-20T06:49:58;3.90;;;2.13;;
938;SDS011;456;53.584;9.968;2023-12-20T06:52:24;2.37;;;1.97;;
938;SDS011;456;53.584;9.968;2023-12-20T06:54:49;3.87;;;2.70;;
938;SDS011;456;53.584;9.968;2023-12-20T06:57:15;3.30;;;2.03;;
938;SDS011;456;53.584;9.968;2023-12-20T06:59:41;2.63;;;2.20;;
938;SDS011;456;53.584;9.968;2023-12-20T07:02:07;2.80;;;1.90;;
938;SDS011;456;53.584;9.968;2023-12-20T07:04:33;2.37;;;1.77;;
938;SDS011;456;53.584;9.968;2023-12-20T07:06:59;3.70;;;2.10;;
938;SDS011;456;53.584;9.968;2023-12-20T07:09:28;2.80;;;2.30;;
938;SDS011;456;53.584;9.968;2023-12-20T07:11:53;3.43;;;2.30;;
938;SDS011;456;53.584;9.968;2023-12-20T07:14:19;2.73;;;2.20;;
938;SDS011;456;53.584;9.968;2023-12-20T07:16:45;4.57;;;3.10;;
938;SDS011;456;53.584;9.968;2023-12-20T07:19:10;5.63;;;2.47;;
938;SDS011;456;53.584;9.968;2023-12-20T07:21:36;4.40;;;2.90;;
938;SDS011;456;53.584;9.968;2023-12-20T07:24:01;3.67;;;2.50;;
938;SDS011;456;53.584;9.968;2023-12-20T07:26:27;3.80;;;2.03;;
938;SDS011;456;53.584;9.968;2023-12-20T07:28:52;3.93;;;2.40;;
938;SDS011;456;53.584;9.968;2023-12-20T07:31:18;7.07;;;2.40;;
938;SDS011;456;53.584;9.968;2023-12-20T07:33:43;2.87;;;2.53;;
938;SDS011;456;53.584;9.968;2023-12-20T07:36:09;3.53;;;2.40;;
938;SDS011;456;53.584;9.968;2023-12-20T07:38:35;3.20;;;2.73;;
938;SDS011;456;53.584;9.968;2023-12-20T07:41:01;4.83;;;2.70;;
938;SDS011;456;53.584;9.968;2023-12-20T07:43:26;3.87;;;2.50;;
938;SDS011;456;53.584;9.968;2023-12-20T07:45:52;5.20;;;2.67;;
938;SDS011;456;53.584;9.968;2023-12-20T07:48:17;4.93;;;3.03;;
938;SDS011;456;53.584;9.968;2023-12-20T07:50:43;6.07;;;3.00;;
938;SDS011;456;53.584;9.968;2023-12-20T07:53:08;4.60;;;2.73;;
938;SDS011;456;53.584;9.968;2023-12-20T07:55:34;4.60;;;2.73;;
938;SDS011;456;53.584;9.968;2023-12-20T07:58:00;4.77;;;3.03;;
938;SDS011;456;53.584;9.968;2023-12-20T08:00:26;5.50;;;2.50;;
938;SDS011;456;53.584;9.968;2023-12-20T08:02:52;2.83;;;2.43;;
938;SDS011;456;53.584;9.968;2023-12-20T08:05:17;6.53;;;3.20;;
938;SDS011;456;53.584;9.968;2023-12-20T08:07:43;2.87;;;2.57;;
938;SDS011;456;53.584;9.968;2023-12-20T08:10:09;6.87;;;2.80;;
938;SDS011;456;53.584;9.968;2023-12-20T08:12:34;5.87;;;2.60;;
938;SDS011;456;53.584;9.968;2023-12-20T08:15:00;4.80;;;2.93;;
938;SDS011;456;53.584;9.968;2023-12-20T08:17:26;4.67;;;2.90;;
938;SDS011;456;53.584;9.968;2023-12-20T08:19:52;5.90;;;2.70;;
938;SDS011;456;53.584;9.968;2023-12-20T08:22:17;3.50;;;2.20;;
938;SDS011;456;53.584;9.968;2023-12-20T08:24:43;4.00;;;2.70;;
938;SDS011;456;53.584;9.968;2023-12-20T08:27:09;2.87;;;2.50;;
938;SDS011;456;53.584;9.968;2023-12-20T08:29:34;5.10;;;2.70;;
938;SDS011;456;53.584;9.968;2023-12-20T08:32:00;3.43;;;2.50;;
938;SDS011;456;53.584;9.968;2023-12-20T08:34:26;3.30;;;2.27;;
938;SDS011;456;53.584;9.968;2023-12-20T08:36:52;8.30;;;2.90;;
938;SDS011;456;53.584;9.968;2023-12-20T08:39:17;6.10;;;2.83;;
938;SDS011;456;53.584;9.968;2023-12-20T08:41:43;3.20;;;2.43;;
938;SDS011;456;53.584;9.968;2023-12-20T08:44:09;4.40;;;2.43;;
938;SDS011;456;53.584;9.968;2023-12-20T08:46:35;4.43;;;2.73;;
938;SDS011;456;53.584;9.968;2023-12-20T08:49:00;3.77;;;1.90;;
938;SDS011;456;53.584;9.968;2023-12-20T08:51:26;3.83;;;2.60;;
938;SDS011;456;53.584;9.968;2023-12-20T08:53:52;5.23;;;2.57;;
938;SDS011;456;53.584;9.968;2023-12-20T08:56:18;7.73;;;3.23;;
938;SDS011;456;53.584;9.968;2023-12-20T08:58:45;5.17;;;2.90;;
938;SDS011;456;53.584;9.968;2023-12-20T09:01:11;5.13;;;2.30;;
938;SDS011;456;53.584;9.968;2023-12-20T09:03:36;5.10;;;2.50;;
938;SDS011;456;53.584;9.968;2023-12-20T09:06:02;4.80;;;2.67;;
938;SDS011;456;53.584;9.968;2023-12-20T09:08:28;3.70;;;2.60;;
938;SDS011;456;53.584;9.968;2023-12-20T09:10:53;3.20;;;2.50;;
938;SDS011;456;53.584;9.968;2023-12-20T09:13:19;4.07;;;2.63;;
938;SDS011;456;53.584;9.968;2023-12-20T09:15:45;4.70;;;2.03;;
938;SDS011;456;53.584;9.968;2023-12-20T09:18:11;4.27;;;2.40;;
938;SDS011;456;53.584;9.968;2023-12-20T09:20:37;3.00;;;2.20;;
938;SDS011;456;53.584;9.968;2023-12-20T09:23:03;3.17;;;2.13;;
938;SDS011;456;53.584;9.968;2023-12-20T09:25:28;6.20;;;2.90;;
938;SDS011;456;53.584;9.968;2023-12-20T09:27:54;3.03;;;2.30;;
938;SDS011;456;53.584;9.968;2023-12-20T09:30:20;4.53;;;2.33;;
938;SDS011;456;53.584;9.968;2023-12-20T09:32:46;3.10;;;2.50;;
938;SDS011;456;53.584;9.968;2023-12-20T09:35:11;5.90;;;3.00;;
938;SDS011;456;53.584;9.968;2023-12-20T09:37:37;6.27;;;3.20;;
938;SDS011;456;53.584;9.968;2023-12-20T09:40:03;5.43;;;2.30;;
938;SDS011;456;53.584;9.968;2023-12-20T09:42:31;3.40;;;2.33;;
938;SDS011;456;53.584;9.968;2023-12-20T09:45:05;5.47;;;2.93;;
938;SDS011;456;53.584;9.968;2023-12-20T09:47:34;3.53;;;2.43;;
938;SDS011;456;53.584;9.968;2023-12-20T09:50:00;4.47;;;2.30;;
938;SDS011;456;53.584;9.968;2023-12-20T09:52:30;4.13;;;2.30;;
938;SDS011;456;53.584;9.968;2023-12-20T09:54:56;4.63;;;2.70;;
938;SDS011;456;53.584;9.968;2023-12-20T09:57:22;4.27;;;2.50;;
938;SDS011;456;53.584;9.968;2023-12-20T09:59:48;4.93;;;2.27;;
938;SDS011;456;53.584;9.968;2023-12-20T10:02:13;4.43;;;1.90;;
938;SDS011;456;53.584;9.968;2023-12-20T10:04:46;5.00;;;2.87;;
938;SDS011;456;53.584;9.968;2023-12-20T10:07:13;3.30;;;2.03;;
938;SDS011;456;53.584;9.968;2023-12-20T10:09:38;5.17;;;2.40;;
938;SDS011;456;53.584;9.968;2023-12-20T10:12:05;4.40;;;2.10;;
938;SDS011;456;53.584;9.968;2023-12-20T10:14:32;3.17;;;2.00;;
938;SDS011;456;53.584;9.968;2023-12-20T10:17:03;4.20;;;1.93;;
938;SDS011;456;53.584;9.968;2023-12-20T10:19:30;3.50;;;1.90;;
938;SDS011;456;53.584;9.968;2023-12-20T10:21:57;3.70;;;2.30;;
938;SDS011;456;53.584;9.968;2023-12-20T10:24:24;2.50;;;1.80;;
938;SDS011;456;53.584;9.968;2023-12-20T10:27:03;3.23;;;2.40;;
938;SDS011;456;53.584;9.968;2023-12-20T10:29:35;2.57;;;1.80;;
938;SDS011;456;53.584;9.968;2023-12-20T10:32:21;1.57;;;1.40;;
938;SDS011;456;53.584;9.968;2023-12-20T10:34:48;5.77;;;1.70;;
938;SDS011;456;53.584;9.968;2023-12-20T10:37:14;2.43;;;1.40;;
938;SDS011;456;53.584;9.968;2023-12-20T10:39:40;1.43;;;1.17;;
938;SDS011;456;53.584;9.968;2023-12-20T10:42:08;5.00;;;1.77;;
938;SDS011;456;53.584;9.968;2023-12-20T10:44:36;3.13;;;1.37;;
938;SDS011;456;53.584;9.968;2023-12-20T10:47:02;3.00;;;1.60;;
938;SDS011;456;53.584;9.968;2023-12-20T10:49:29;3.17;;;1.50;;
938;SDS011;456;53.584;9.968;2023-12-20T10:51:55;2.80;;;1.40;;
938;SDS011;456;53.584;9.968;2023-12-20T10:54:24;2.03;;;1.57;;
938;SDS011;456;53.584;9.968;2023-12-20T10:56:50;2.50;;;1.50;;
938;SDS011;456;53.584;9.968;2023-12-20T10:59:17;1.90;;;1.23;;
938;SDS011;456;53.584;9.968;2023-12-20T11:01:45;2.03;;;1.27;;
938;SDS011;456;53.584;9.968;2023-12-20T11:04:27;3.17;;;1.13;;
938;SDS011;456;53.584;9.968;2023-12-20T11:07:07;1.20;;;1.00;;
938;SDS011;456;53.584;9.968;2023-12-20T11:09:43;1.57;;;1.10;;
938;SDS011;456;53.584;9.968;2023-12-20T11:12:25;3.40;;;1.30;;
938;SDS011;456;53.584;9.968;2023-12-20T11:14:54;1.40;;;1.20;;
938;SDS011;456;53.584;9.968;2023-12-20T11:17:22;2.20;;;1.00;;
938;SDS011;456;53.584;9.968;2023-12-20T11:22:17;1.70;;;1.13;;
938;SDS011;456;53.584;9.968;2023-12-20T11:24:46;2.27;;;1.20;;
938;SDS011;456;53.584;9.968;2023-12-20T11:27:13;1.60;;;1.50;;
938;SDS011;456;53.584;9.968;2023-12-20T11:29:38;3.20;;;1.70;;
938;SDS011;456;53.584;9.968;2023-12-20T11:34:50;1.77;;;1.30;;
938;SDS011;456;53.584;9.968;2023-12-20T11:37:16;2.40;;;1.70;;
938;SDS011;456;53.584;9.968;2023-12-20T11:39:44;2.30;;;1.80;;
938;SDS011;456;53.584;9.968;2023-12-20T11:42:09;3.20;;;2.03;;
938;SDS011;456;53.584;9.968;2023-12-20T11:44:36;3.60;;;2.03;;
938;SDS011;456;53.584;9.968;2023-12-20T11:47:01;2.60;;;2.10;;
938;SDS011;456;53.584;9.968;2023-12-20T11:49:27;4.93;;;2.80;;
938;SDS011;456;53.584;9.968;2023-12-20T11:51:55;3.83;;;1.90;;
938;SDS011;456;53.584;9.968;2023-12-20T11:54:21;2.37;;;2.17;;
938;SDS011;456;53.584;9.968;2023-12-20T11:56:47;3.80;;;2.20;;
938;SDS011;456;53.584;9.968;2023-12-20T11:59:13;2.27;;;1.83;;
938;SDS011;456;53.584;9.968;2023-12-20T12:01:40;3.83;;;2.13;;
938;SDS011;456;53.584;9.968;2023-12-20T12:04:12;4.03;;;2.20;;
938;SDS011;456;53.584;9.968;2023-12-20T12:06:37;2.20;;;1.93;;
938;SDS011;456;53.584;9.968;2023-12-20T12:09:03;2.50;;;2.03;;
938;SDS011;456;53.584;9.968;2023-12-20T12:11:29;3.00;;;1.87;;
938;SDS011;456;53.584;9.968;2023-12-20T12:13:55;3.00;;;2.30;;
938;SDS011;456;53.584;9.968;2023-12-20T12:16:21;3.33;;;2.03;;
938;SDS011;456;53.584;9.968;2023-12-20T12:18:54;2.47;;;2.27;;
938;SDS011;456;53.584;9.968;2023-12-20T12:21:24;2.70;;;2.23;;
938;SDS011;456;53.584;9.968;2023-12-20T12:23:49;3.17;;;2.07;;
938;SDS011;456;53.584;9.968;2023-12-20T12:26:15;2.03;;;1.83;;
938;SDS011;456;53.584;9.968;2023-12-20T12:28:41;3.07;;;1.90;;
938;SDS011;456;53.584;9.968;2023-12-20T12:31:08;3.67;;;1.70;;
938;SDS011;456;53.584;9.968;2023-12-20T12:33:37;3.10;;;2.23;;
938;SDS011;456;53.584;9.968;2023-12-20T12:36:03;2.53;;;2.00;;
938;SDS011;456;53.584;9.968;2023-12-20T12:38:32;2.70;;;1.93;;
938;SDS011;456;53.584;9.968;2023-12-20T12:40:58;1.73;;;1.50;;
938;SDS011;456;53.584;9.968;2023-12-20T12:43:25;4.20;;;1.90;;
938;SDS011;456;53.584;9.968;2023-12-20T12:45:50;4.10;;;1.47;;
938;SDS011;456;53.584;9.968;2023-12-20T12:48:16;3.00;;;1.50;;
938;SDS011;456;53.584;9.968;2023-12-20T12:50:42;2.70;;;1.80;;
938;SDS011;456;53.584;9.968;2023-12-20T12:53:08;4.23;;;1.90;;
938;SDS011;456;53.584;9.968;2023-12-20T12:55:34;2.20;;;1.67;;
938;SDS011;456;53.584;9.968;2023-12-20T12:58:01;1.77;;;1.40;;
938;SDS011;456;53.584;9.968;2023-12-20T13:00:27;1.67;;;1.20;;
938;SDS011;456;53.584;9.968;2023-12-20T13:02:52;1.73;;;1.63;;
938;SDS011;456;53.584;9.968;2023-12-20T13:05:18;2.30;;;1.53;;
938;SDS011;456;53.584;9.968;2023-12-20T13:07:43;2.60;;;1.27;;
938;SDS011;456;53.584;9.968;2023-12-20T13:10:10;2.13;;;1.40;;
938;SDS011;456;53.584;9.968;2023-12-20T13:12:36;2.23;;;1.37;;
938;SDS011;456;53.584;9.968;2023-12-20T13:15:02;3.00;;;1.63;;
938;SDS011;456;53.584;9.968;2023-12-20T13:17:31;3.80;;;1.13;;
938;SDS011;456;53.584;9.968;2023-12-20T13:19:56;1.83;;;1.33;;
938;SDS011;456;53.584;9.968;2023-12-20T13:22:22;1.90;;;1.40;;
938;SDS011;456;53.584;9.968;2023-12-20T13:24:48;1.73;;;1.10;;
938;SDS011;456;53.584;9.968;2023-12-20T13:27:14;2.30;;;1.20;;
938;SDS011;456;53.584;9.968;2023-12-20T13:29:39;1.80;;;1.10;;
938;SDS011;456;53.584;9.968;2023-12-20T13:32:05;2.37;;;1.63;;
938;SDS011;456;53.584;9.968;2023-12-20T13:34:31;1.73;;;1.40;;
938;SDS011;456;53.584;9.968;2023-12-20T13:36:56;4.30;;;1.33;;
938;SDS011;456;53.584;9.968;2023-12-20T13:39:22;1.93;;;1.50;;
938;SDS011;456;53.584;9.968;2023-12-20T13:41:48;3.20;;;1.60;;
938;SDS011;456;53.584;9.968;2023-12-20T13:44:13;1.93;;;1.43;;
938;SDS011;456;53.584;9.968;2023-12-20T13:46:42;3.30;;;1.80;;
938;SDS011;456;53.584;9.968;2023-12-20T13:49:07;3.70;;;1.40;;
938;SDS011;456;53.584;9.968;2023-12-20T13:51:33;3.73;;;1.60;;
938;SDS011;456;53.584;9.968;2023-12-20T13:53:58;3.83;;;2.00;;
938;SDS011;456;53.584;9.968;2023-12-20T13:56:25;3.70;;;1.90;;
938;SDS011;456;53.584;9.968;2023-12-20T13:58:50;3.90;;;1.70;;
938;SDS011;456;53.584;9.968;2023-12-20T14:01:16;3.70;;;1.70;;
938;SDS011;456;53.584;9.968;2023-12-20T14:03:42;4.47;;;2.20;;
938;SDS011;456;53.584;9.968;2023-12-20T14:06:07;4.07;;;2.07;;
938;SDS011;456;53.584;9.968;2023-12-20T14:08:33;4.70;;;1.70;;
938;SDS011;456;53.584;9.968;2023-12-20T14:10:59;4.57;;;1.70;;
938;SDS011;456;53.584;9.968;2023-12-20T14:13:26;1.90;;;1.47;;
938;SDS011;456;53.584;9.968;2023-12-20T14:15:51;2.30;;;1.50;;
938;SDS011;456;53.584;9.968;2023-12-20T14:18:19;2.43;;;1.53;;
938;SDS011;456;53.584;9.968;2023-12-20T14:20:44;3.50;;;1.63;;
938;SDS011;456;53.584;9.968;2023-12-20T14:23:12;3.37;;;1.90;;
938;SDS011;456;53.584;9.968;2023-12-20T14:25:39;3.20;;;2.20;;
938;SDS011;456;53.584;9.968;2023-12-20T14:28:06;2.53;;;1.70;;
938;SDS011;456;53.584;9.968;2023-12-20T14:30:31;4.47;;;2.10;;
938;SDS011;456;53.584;9.968;2023-12-20T14:32:57;4.33;;;2.20;;
938;SDS011;456;53.584;9.968;2023-12-20T14:35:23;4.63;;;2.30;;
938;SDS011;456;53.584;9.968;2023-12-20T14:37:49;3.63;;;1.90;;
938;SDS011;456;53.584;9.968;2023-12-20T14:40:15;5.43;;;2.10;;
938;SDS011;456;53.584;9.968;2023-12-20T14:42:42;4.90;;;1.70;;
938;SDS011;456;53.584;9.968;2023-12-20T14:45:08;6.40;;;1.90;;
938;SDS011;456;53.584;9.968;2023-12-20T14:47:34;3.07;;;1.97;;
938;SDS011;456;53.584;9.968;2023-12-20T14:50:02;4.60;;;2.13;;
938;SDS011;456;53.584;9.968;2023-12-20T14:52:28;6.00;;;3.13;;
938;SDS011;456;53.584;9.968;2023-12-20T14:54:54;3.90;;;2.13;;
938;SDS011;456;53.584;9.968;2023-12-20T14:57:20;3.13;;;1.67;;
938;SDS011;456;53.584;9.968;2023-12-20T14:59:45;4.63;;;2.27;;
938;SDS011;456;53.584;9.968;2023-12-20T15:02:11;3.93;;;2.27;;
938;SDS011;456;53.584;9.968;2023-12-20T15:04:37;4.57;;;2.40;;
938;SDS011;456;53.584;9.968;2023-12-20T15:07:02;5.80;;;2.63;;
938;SDS011;456;53.584;9.968;2023-12-20T15:09:30;3.07;;;2.30;;
938;SDS011;456;53.584;9.968;2023-12-20T15:11:56;4.67;;;2.30;;
938;SDS011;456;53.584;9.968;2023-12-20T15:14:22;4.47;;;2.30;;
938;SDS011;456;53.584;9.968;2023-12-20T15:16:47;4.43;;;2.80;;
938;SDS011;456;53.584;9.968;2023-12-20T15:19:13;3.80;;;2.10;;
938;SDS011;456;53.584;9.968;2023-12-20T15:21:39;4.80;;;2.23;;
938;SDS011;456;53.584;9.968;2023-12-20T15:24:10;4.90;;;2.10;;
938;SDS011;456;53.584;9.968;2023-12-20T15:26:40;6.20;;;2.13;;
938;SDS011;456;53.584;9.968;2023-12-20T15:29:06;8.83;;;2.37;;
938;SDS011;456;53.584;9.968;2023-12-20T15:31:31;3.20;;;2.00;;
938;SDS011;456;53.584;9.968;2023-12-20T15:33:58;4.73;;;1.77;;
938;SDS011;456;53.584;9.968;2023-12-20T15:36:26;2.87;;;1.90;;
938;SDS011;456;53.584;9.968;2023-12-20T15:38:52;4.50;;;2.63;;
938;SDS011;456;53.584;9.968;2023-12-20T15:41:21;4.37;;;2.03;;
938;SDS011;456;53.584;9.968;2023-12-20T15:43:47;3.20;;;1.90;;